createdAt,value
2022-08-02T00:01:00.980Z,79.10
2022-08-02T00:03:29.332Z,79.00
2022-08-02T00:05:59.264Z,78.70
2022-08-02T00:08:27.521Z,78.70
2022-08-02T00:10:55.872Z,78.50
2022-08-02T00:13:24.127Z,79.10
2022-08-02T00:15:53.756Z,79.00
2022-08-02T00:18:22.067Z,79.20
2022-08-02T00:20:50.802Z,79.00
2022-08-02T00:23:19.200Z,79.30
2022-08-02T00:25:54.863Z,79.30
2022-08-02T00:28:27.993Z,79.30
2022-08-02T00:30:58.818Z,79.00
2022-08-02T00:34:26.256Z,79.20
2022-08-02T00:36:16.078Z,79.30
2022-08-02T00:38:44.995Z,80.00
2022-08-02T00:41:16.593Z,80.20
2022-08-02T00:43:45.369Z,80.00
2022-08-02T00:46:16.366Z,80.70
2022-08-02T00:48:44.744Z,81.20
2022-08-02T00:51:13.956Z,81.40
2022-08-02T00:53:42.408Z,81.20
2022-08-02T00:56:10.777Z,81.10
2022-08-02T00:58:39.310Z,81.40
2022-08-02T01:01:07.666Z,81.10
2022-08-02T01:03:37.431Z,81.30
2022-08-02T01:06:13.406Z,81.90
2022-08-02T01:08:41.875Z,82.30
2022-08-02T01:11:13.360Z,82.20
2022-08-02T01:13:41.828Z,81.80
2022-08-02T01:16:17.737Z,81.60
2022-08-02T01:18:54.305Z,82.30
2022-08-02T01:21:51.214Z,82.60
2022-08-02T01:24:45.739Z,82.60
2022-08-02T01:27:35.070Z,82.50
2022-08-02T01:30:07.278Z,82.30
2022-08-02T01:32:43.165Z,82.40
2022-08-02T01:35:16.974Z,81.90
2022-08-02T01:37:50.983Z,82.10
2022-08-02T01:40:27.324Z,81.70
2022-08-02T01:42:57.824Z,81.90
2022-08-02T01:45:31.926Z,81.80
2022-08-02T01:48:01.820Z,81.30
2022-08-02T01:50:34.071Z,81.20
2022-08-02T01:53:06.744Z,81.70
2022-08-02T01:55:56.853Z,81.40
2022-08-02T01:58:29.942Z,81.20
2022-08-02T02:01:01.117Z,80.90
2022-08-02T02:03:33.671Z,81.40
2022-08-02T02:06:06.709Z,81.10
2022-08-02T02:08:40.166Z,81.70
2022-08-02T02:12:06.214Z,81.40
2022-08-02T02:13:59.856Z,81.80
2022-08-02T02:16:32.049Z,82.10
2022-08-02T02:19:03.197Z,82.00
2022-08-02T02:21:31.682Z,81.70
2022-08-02T02:24:00.404Z,81.40
2022-08-02T02:26:31.900Z,81.90
2022-08-02T02:29:03.012Z,82.30
2022-08-02T02:31:35.432Z,82.10
2022-08-02T02:34:07.298Z,82.40
2022-08-02T02:36:36.323Z,83.30
2022-08-02T02:39:13.072Z,83.20
2022-08-02T02:41:43.718Z,83.10
2022-08-02T02:44:17.745Z,83.50
2022-08-02T02:46:50.763Z,83.10
2022-08-02T02:49:20.654Z,82.80
2022-08-02T02:51:49.929Z,82.70
2022-08-02T02:54:33.347Z,82.20
2022-08-02T02:57:03.054Z,81.70
2022-08-02T02:59:31.801Z,81.80
2022-08-02T03:02:02.653Z,81.90
2022-08-02T03:04:56.356Z,81.80
2022-08-02T03:07:21.354Z,81.90
2022-08-02T03:09:53.859Z,82.20
2022-08-02T03:12:30.146Z,82.20
2022-08-02T03:15:00.120Z,82.10
2022-08-02T03:17:39.979Z,81.80
2022-08-02T03:20:14.974Z,81.60
2022-08-02T03:22:43.895Z,81.70
2022-08-02T03:25:14.049Z,81.80
2022-08-02T03:27:42.701Z,81.50
2022-08-02T03:30:13.469Z,81.40
2022-08-02T03:32:46.958Z,81.10
2022-08-02T03:35:23.822Z,81.00
2022-08-02T03:37:55.678Z,81.00
2022-08-02T03:40:24.971Z,81.20
2022-08-02T03:42:53.663Z,81.10
2022-08-02T03:45:22.221Z,81.30
2022-08-02T03:47:53.106Z,81.30
2022-08-02T03:50:23.942Z,81.40
2022-08-02T03:52:53.050Z,81.30
2022-08-02T03:55:21.365Z,81.10
2022-08-02T03:57:49.993Z,81.50
2022-08-02T04:00:22.012Z,81.70
2022-08-02T04:02:51.703Z,81.90
2022-08-02T04:05:20.633Z,82.00
2022-08-02T04:08:32.703Z,81.90
2022-08-02T04:10:51.722Z,82.10
2022-08-02T04:13:26.462Z,82.20
2022-08-02T04:16:05.353Z,82.20
2022-08-02T04:18:45.584Z,82.30
2022-08-02T04:21:18.737Z,82.20
2022-08-02T04:23:48.890Z,82.70
2022-08-02T04:26:17.779Z,82.90
2022-08-02T04:28:47.564Z,82.70
2022-08-02T04:31:16.853Z,82.30
2022-08-02T04:33:47.801Z,82.80
2022-08-02T04:36:31.443Z,82.80
2022-08-02T04:39:00.376Z,83.40
2022-08-02T04:41:43.643Z,82.70
2022-08-02T04:44:13.113Z,82.90
2022-08-02T04:46:42.838Z,82.60
2022-08-02T04:49:12.963Z,82.80
2022-08-02T04:51:42.610Z,82.50
2022-08-02T04:54:12.496Z,82.90
2022-08-02T04:56:41.657Z,82.80
2022-08-02T04:59:10.251Z,82.30
2022-08-02T05:01:39.400Z,82.20
2022-08-02T05:04:07.803Z,82.00
2022-08-02T05:06:37.600Z,81.70
2022-08-02T05:09:05.839Z,82.00
2022-08-02T05:11:36.037Z,81.70
2022-08-02T05:14:05.831Z,81.30
2022-08-02T05:16:34.403Z,81.40
2022-08-02T05:19:03.393Z,81.50
2022-08-02T05:21:32.603Z,81.20
2022-08-02T05:24:02.265Z,80.80
2022-08-02T05:26:30.584Z,80.70
2022-08-02T05:28:58.957Z,80.80
2022-08-02T05:31:27.261Z,80.90
2022-08-02T05:33:55.602Z,80.60
2022-08-02T05:36:23.859Z,80.90
2022-08-02T05:38:52.944Z,81.50
2022-08-02T05:41:29.498Z,81.60
2022-08-02T05:43:58.008Z,80.90
2022-08-02T05:46:26.340Z,81.30
2022-08-02T05:48:54.859Z,81.20
2022-08-02T05:51:29.881Z,80.90
2022-08-02T05:54:12.282Z,81.10
2022-08-02T05:56:48.338Z,81.90
2022-08-02T05:59:28.982Z,81.70
2022-08-02T06:01:59.445Z,81.20
2022-08-02T06:04:34.388Z,81.40
2022-08-02T06:07:06.243Z,81.00
2022-08-02T06:09:35.525Z,80.80
2022-08-02T06:12:07.167Z,80.40
2022-08-02T06:14:35.914Z,79.60
2022-08-02T06:17:06.067Z,79.10
2022-08-02T06:19:47.026Z,79.60
2022-08-02T06:22:34.781Z,78.10
2022-08-02T06:25:47.854Z,77.90
2022-08-02T06:27:57.045Z,77.90
2022-08-02T06:30:25.615Z,77.10
2022-08-02T06:32:54.413Z,76.40
2022-08-02T06:35:22.999Z,76.00
2022-08-02T06:37:59.035Z,75.30
2022-08-02T06:40:32.265Z,75.80
2022-08-02T06:43:13.155Z,74.80
2022-08-02T06:45:42.070Z,75.00
2022-08-02T06:48:11.141Z,75.20
2022-08-02T06:50:41.940Z,74.70
2022-08-02T06:53:11.404Z,74.20
2022-08-02T06:55:43.441Z,73.00
2022-08-02T06:58:14.700Z,72.30
2022-08-02T07:00:44.689Z,72.30
2022-08-02T07:03:13.174Z,72.10
2022-08-02T07:05:43.638Z,71.80
2022-08-02T07:08:11.867Z,71.70
2022-08-02T07:10:40.142Z,71.40
2022-08-02T07:13:08.463Z,71.50
2022-08-02T07:15:39.064Z,71.00
2022-08-02T07:18:17.316Z,71.40
2022-08-02T07:20:45.916Z,72.10
2022-08-02T07:23:15.048Z,71.00
2022-08-02T07:26:03.189Z,69.50
2022-08-02T07:28:32.128Z,69.60
2022-08-02T07:31:01.806Z,69.80
2022-08-02T07:33:46.781Z,69.30
2022-08-02T07:36:17.055Z,70.10
2022-08-02T07:38:51.126Z,69.50
2022-08-02T07:41:21.518Z,68.60
2022-08-02T07:43:51.377Z,68.60
2022-08-02T07:46:21.098Z,68.20
2022-08-02T07:48:49.789Z,68.60
2022-08-02T07:51:18.054Z,69.10
2022-08-02T07:53:51.043Z,68.30
2022-08-02T07:56:30.723Z,68.00
2022-08-02T07:58:58.995Z,67.80
2022-08-02T08:01:28.737Z,66.90
2022-08-02T08:03:57.064Z,66.80
2022-08-02T08:06:28.553Z,66.00
2022-08-02T08:08:57.504Z,66.50
2022-08-02T08:11:27.406Z,66.20
2022-08-02T08:13:55.693Z,65.40
2022-08-02T08:16:26.197Z,65.30
2022-08-02T08:18:55.905Z,66.00
2022-08-02T08:21:24.195Z,65.50
2022-08-02T08:23:52.528Z,64.60
2022-08-02T08:26:21.079Z,65.10
2022-08-02T08:28:49.399Z,65.30
2022-08-02T08:31:17.685Z,63.90
2022-08-02T08:33:45.970Z,63.80
2022-08-02T08:36:16.620Z,62.80
2022-08-02T08:38:45.005Z,62.80
2022-08-02T08:41:13.459Z,63.00
2022-08-02T08:43:41.678Z,62.60
2022-08-02T08:46:12.456Z,61.30
2022-08-02T08:48:45.308Z,62.00
2022-08-02T08:51:22.520Z,62.60
2022-08-02T08:53:55.417Z,61.60
2022-08-02T08:56:24.237Z,60.80
2022-08-02T08:58:52.513Z,60.60
2022-08-02T09:01:21.640Z,59.10
2022-08-02T09:03:50.004Z,59.80
2022-08-02T09:06:20.560Z,59.60
2022-08-02T09:08:49.163Z,59.10
2022-08-02T09:11:20.070Z,59.20
2022-08-02T09:13:54.441Z,59.80
2022-08-02T09:16:35.234Z,58.30
2022-08-02T09:19:18.640Z,58.30
2022-08-02T09:21:49.994Z,59.90
2022-08-02T09:24:20.373Z,58.80
2022-08-02T09:26:50.488Z,58.50
2022-08-02T09:29:21.448Z,58.40
2022-08-02T09:31:51.419Z,58.70
2022-08-02T09:34:20.379Z,57.60
2022-08-02T09:36:54.451Z,57.50
2022-08-02T09:39:26.457Z,56.10
2022-08-02T09:42:10.643Z,57.00
2022-08-02T09:44:39.174Z,56.00
2022-08-02T09:47:16.840Z,57.60
2022-08-02T09:49:52.251Z,57.00
2022-08-02T09:52:36.857Z,57.50
2022-08-02T09:55:12.999Z,56.30
2022-08-02T09:57:41.826Z,56.90
2022-08-02T10:00:14.944Z,56.20
2022-08-02T10:03:08.327Z,57.40
2022-08-02T10:05:55.573Z,54.00
2022-08-02T10:08:27.401Z,53.80
2022-08-02T10:11:01.441Z,55.20
2022-08-02T10:13:31.860Z,55.60
2022-08-02T10:16:00.734Z,53.50
2022-08-02T10:18:38.865Z,51.60
2022-08-02T10:21:13.266Z,52.60
2022-08-02T10:23:45.866Z,51.70
2022-08-02T10:26:20.068Z,51.20
2022-08-02T10:28:50.557Z,52.10
2022-08-02T10:31:25.353Z,51.90
2022-08-02T10:33:55.612Z,51.00
2022-08-02T10:36:27.173Z,51.10
2022-08-02T10:38:58.653Z,51.10
2022-08-02T10:41:48.430Z,50.90
2022-08-02T10:44:29.227Z,51.40
2022-08-02T10:47:26.166Z,51.10
2022-08-02T10:49:56.453Z,50.00
2022-08-02T10:52:25.441Z,50.70
2022-08-02T10:55:00.552Z,51.90
2022-08-02T10:57:31.498Z,50.90
2022-08-02T11:00:05.484Z,48.20
2022-08-02T11:02:40.837Z,50.00
2022-08-02T11:05:18.614Z,49.20
2022-08-02T11:07:49.544Z,48.90
2022-08-02T11:10:40.635Z,49.70
2022-08-02T11:13:14.992Z,49.30
2022-08-02T11:15:57.023Z,48.00
2022-08-02T11:19:06.688Z,47.60
2022-08-02T11:21:37.136Z,46.90
2022-08-02T11:24:29.501Z,47.50
2022-08-02T11:27:00.614Z,46.80
2022-08-02T11:29:38.593Z,46.70
2022-08-02T11:32:08.957Z,45.60
2022-08-02T11:34:38.467Z,47.10
2022-08-02T11:37:07.745Z,48.00
2022-08-02T11:39:36.078Z,46.50
2022-08-02T11:42:06.298Z,48.00
2022-08-02T11:44:42.954Z,48.10
2022-08-02T11:47:11.273Z,49.40
2022-08-02T11:49:39.705Z,47.30
2022-08-02T11:52:11.628Z,47.10
2022-08-02T11:54:43.200Z,46.10
2022-08-02T11:57:20.595Z,46.80
2022-08-02T11:59:51.400Z,45.10
2022-08-02T12:02:21.383Z,45.90
2022-08-02T12:05:02.088Z,45.10
2022-08-02T12:07:35.301Z,45.00
2022-08-02T12:10:08.409Z,44.60
2022-08-02T12:12:51.960Z,44.90
2022-08-02T12:15:37.390Z,44.70
2022-08-02T12:18:28.578Z,44.40
2022-08-02T12:20:57.024Z,46.00
2022-08-02T12:23:25.907Z,44.90
2022-08-02T12:26:06.593Z,44.80
2022-08-02T12:28:39.376Z,45.20
2022-08-02T12:31:10.578Z,43.20
2022-08-02T12:34:17.005Z,44.00
2022-08-02T12:36:47.044Z,42.90
2022-08-02T12:39:15.858Z,43.00
2022-08-02T12:41:54.973Z,43.10
2022-08-02T12:44:23.560Z,42.90
2022-08-02T12:47:01.866Z,42.30
2022-08-02T12:49:33.532Z,42.40
2022-08-02T12:52:04.994Z,42.50
2022-08-02T12:54:41.665Z,41.20
2022-08-02T12:57:13.823Z,42.40
2022-08-02T12:59:45.405Z,43.90
2022-08-02T13:02:17.010Z,42.90
2022-08-02T13:04:50.357Z,43.70
2022-08-02T13:07:19.934Z,44.00
2022-08-02T13:09:50.088Z,44.00
2022-08-02T13:12:18.538Z,44.10
2022-08-02T13:14:46.906Z,44.50
2022-08-02T13:17:15.443Z,43.20
2022-08-02T13:19:43.773Z,42.60
2022-08-02T13:22:13.621Z,42.80
2022-08-02T13:24:56.090Z,42.30
2022-08-02T13:27:26.166Z,42.20
2022-08-02T13:29:56.667Z,43.10
2022-08-02T13:32:25.464Z,42.40
2022-08-02T13:34:53.744Z,41.00
2022-08-02T13:37:23.486Z,40.80
2022-08-02T13:40:18.608Z,41.00
2022-08-02T13:42:40.448Z,40.90
2022-08-02T13:45:13.323Z,39.90
2022-08-02T13:47:57.595Z,40.10
2022-08-02T13:50:32.147Z,39.60
2022-08-02T13:53:01.892Z,40.30
2022-08-02T13:55:30.594Z,40.60
2022-08-02T13:58:00.303Z,40.10
2022-08-02T14:00:35.066Z,39.50
2022-08-02T14:03:06.819Z,38.30
2022-08-02T14:05:47.867Z,37.60
2022-08-02T14:08:20.049Z,38.30
2022-08-02T14:10:49.140Z,38.10
2022-08-02T14:13:17.515Z,38.70
2022-08-02T14:15:46.146Z,38.60
2022-08-02T14:18:15.500Z,39.50
2022-08-02T14:20:44.912Z,38.10
2022-08-02T14:23:13.891Z,38.30
2022-08-02T14:25:43.954Z,39.10
2022-08-02T14:28:12.380Z,38.20
2022-08-02T14:30:40.695Z,40.20
2022-08-02T14:33:09.346Z,40.80
2022-08-02T14:35:37.686Z,39.60
2022-08-02T14:38:07.092Z,40.30
2022-08-02T14:40:35.662Z,40.30
2022-08-02T14:43:05.697Z,39.90
2022-08-02T14:45:40.163Z,40.80
2022-08-02T14:48:11.572Z,41.20
2022-08-02T14:50:40.345Z,41.50
2022-08-02T14:53:12.014Z,41.40
2022-08-02T14:55:42.782Z,40.90
2022-08-02T14:58:13.365Z,41.30
2022-08-02T15:00:41.961Z,40.90
2022-08-02T15:03:12.867Z,41.00
2022-08-02T15:05:41.559Z,40.70
2022-08-02T15:08:09.855Z,40.30
2022-08-02T15:10:38.209Z,41.20
2022-08-02T15:13:07.323Z,40.00
2022-08-02T15:15:43.366Z,39.50
2022-08-02T15:18:13.861Z,41.30
2022-08-02T15:20:46.206Z,40.40
2022-08-02T15:23:37.567Z,39.80
2022-08-02T15:26:07.786Z,40.30
2022-08-02T15:28:37.050Z,39.70
2022-08-02T15:31:06.692Z,39.70
2022-08-02T15:33:34.918Z,40.60
2022-08-02T15:36:03.233Z,41.70
2022-08-02T15:38:31.602Z,41.80
2022-08-02T15:40:59.882Z,40.50
2022-08-02T15:43:28.322Z,40.40
2022-08-02T15:45:56.565Z,40.70
2022-08-02T15:48:26.260Z,40.90
2022-08-02T15:50:54.480Z,41.90
2022-08-02T15:53:22.783Z,41.00
2022-08-02T15:56:04.429Z,41.10
2022-08-02T15:58:42.552Z,40.50
2022-08-02T16:01:12.669Z,41.20
2022-08-02T16:03:42.437Z,41.60
2022-08-02T16:06:11.160Z,41.00
2022-08-02T16:08:44.585Z,41.00
2022-08-02T16:11:22.439Z,41.20
2022-08-02T16:13:56.838Z,42.20
2022-08-02T16:16:28.976Z,42.30
2022-08-02T16:19:45.774Z,42.50
2022-08-02T16:21:50.557Z,43.30
2022-08-02T16:24:19.062Z,42.40
2022-08-02T16:26:47.667Z,42.90
2022-08-02T16:29:19.121Z,42.50
2022-08-02T16:31:48.116Z,43.10
2022-08-02T16:34:18.522Z,42.70
2022-08-02T16:36:47.302Z,43.50
2022-08-02T16:39:15.639Z,43.60
2022-08-02T16:41:50.689Z,43.60
2022-08-02T16:44:29.041Z,43.50
2022-08-02T16:47:00.956Z,43.90
2022-08-02T16:50:05.450Z,43.40
2022-08-02T16:52:37.609Z,44.10
2022-08-02T16:57:58.170Z,44.10
2022-08-02T17:00:26.473Z,45.20
2022-08-02T17:02:54.745Z,44.80
2022-08-02T17:05:37.861Z,45.20
2022-08-02T17:08:19.019Z,44.70
2022-08-02T17:10:47.395Z,45.10
2022-08-02T17:13:15.794Z,45.30
2022-08-02T17:16:08.695Z,45.00
2022-08-02T17:18:34.254Z,45.20
2022-08-02T17:21:08.014Z,45.70
2022-08-02T17:24:04.399Z,46.60
2022-08-02T17:26:24.758Z,46.40
2022-08-02T17:29:15.663Z,45.70
2022-08-02T17:32:04.721Z,45.70
2022-08-02T17:34:34.537Z,45.90
2022-08-02T17:37:06.331Z,46.70
2022-08-02T17:39:44.092Z,46.80
2022-08-02T17:42:23.488Z,46.60
2022-08-02T17:44:53.700Z,47.10
2022-08-02T17:47:22.777Z,46.40
2022-08-02T17:49:59.947Z,46.50
2022-08-02T17:52:50.558Z,46.50
2022-08-02T17:55:19.561Z,46.40
2022-08-02T17:57:56.966Z,47.10
2022-08-02T18:00:33.834Z,47.00
2022-08-02T18:03:06.286Z,47.40
2022-08-02T18:05:40.346Z,48.10
2022-08-02T18:08:24.226Z,47.70
2022-08-02T18:10:53.493Z,47.80
2022-08-02T18:13:22.346Z,48.00
2022-08-02T18:15:57.089Z,47.90
2022-08-02T18:18:30.241Z,48.30
2022-08-02T18:21:16.169Z,49.30
2022-08-02T18:26:41.233Z,48.90
2022-08-02T18:29:12.178Z,49.90
2022-08-02T18:31:50.778Z,50.30
2022-08-02T18:34:23.945Z,51.00
2022-08-02T18:36:52.719Z,52.80
2022-08-02T18:39:22.394Z,52.00
2022-08-02T18:41:50.701Z,53.10
2022-08-02T18:44:19.092Z,53.60
2022-08-02T18:46:49.349Z,53.60
2022-08-02T18:49:17.927Z,53.30
2022-08-02T18:51:46.271Z,53.50
2022-08-02T18:54:15.584Z,53.40
2022-08-02T18:56:47.146Z,54.30
2022-08-02T18:59:16.071Z,54.10
2022-08-02T19:01:50.738Z,56.20
2022-08-02T19:04:27.183Z,55.70
2022-08-02T19:07:06.966Z,55.10
2022-08-02T19:09:40.007Z,55.80
2022-08-02T19:12:12.454Z,56.30
2022-08-02T19:14:41.111Z,57.60
2022-08-02T19:17:54.477Z,58.00
2022-08-02T19:19:58.496Z,59.00
2022-08-02T19:22:27.414Z,59.60
2022-08-02T19:25:01.117Z,60.80
2022-08-02T19:27:32.057Z,61.20
2022-08-02T19:30:02.861Z,61.00
2022-08-02T19:32:42.620Z,60.80
2022-08-02T19:38:11.480Z,61.00
2022-08-02T19:40:41.794Z,61.60
2022-08-02T19:46:00.767Z,62.80
2022-08-02T19:48:29.181Z,62.50
2022-08-02T19:51:00.892Z,62.10
2022-08-02T19:53:46.696Z,61.80
2022-08-02T19:56:25.534Z,62.90
2022-08-02T19:58:57.843Z,62.40
2022-08-02T20:01:37.266Z,63.70
2022-08-02T20:04:13.752Z,62.90
2022-08-02T20:06:45.550Z,63.70
2022-08-02T20:09:16.596Z,64.40
2022-08-02T20:11:46.013Z,64.20
2022-08-02T20:14:15.674Z,63.70
2022-08-02T20:16:45.975Z,64.10
2022-08-02T20:19:15.129Z,64.40
2022-08-02T20:21:50.512Z,64.20
2022-08-02T20:24:26.472Z,64.90
2022-08-02T20:26:55.582Z,64.90
2022-08-02T20:29:43.257Z,65.60
2022-08-02T20:32:14.786Z,65.90
2022-08-02T20:34:43.295Z,65.80
2022-08-02T20:37:56.135Z,66.20
2022-08-02T20:40:06.654Z,66.70
2022-08-02T20:42:35.334Z,66.60
2022-08-02T20:45:06.551Z,67.20
2022-08-02T20:47:39.976Z,67.50
2022-08-02T20:50:35.446Z,67.90
2022-08-02T20:53:04.883Z,67.80
2022-08-02T20:55:35.631Z,67.90
2022-08-02T20:58:04.954Z,68.30
2022-08-02T21:00:35.478Z,68.80
2022-08-02T21:03:05.240Z,69.20
2022-08-02T21:05:55.061Z,68.80
2022-08-02T21:08:24.076Z,68.80
2022-08-02T21:10:53.394Z,69.20
2022-08-02T21:13:26.140Z,69.70
2022-08-02T21:16:00.504Z,69.80
2022-08-02T21:18:40.178Z,70.00
2022-08-02T21:21:09.565Z,70.40
2022-08-02T21:26:30.733Z,70.80
2022-08-02T21:29:03.070Z,70.90
2022-08-02T21:34:27.177Z,71.80
2022-08-02T21:36:56.309Z,72.10
2022-08-02T21:39:24.700Z,72.30
2022-08-02T21:41:53.406Z,72.20
2022-08-02T21:44:23.159Z,71.90
2022-08-02T21:46:55.647Z,72.20
2022-08-02T21:49:27.406Z,72.40
2022-08-02T21:52:14.231Z,72.50
2022-08-02T21:54:45.341Z,72.80
2022-08-02T21:57:16.153Z,73.00
2022-08-02T21:59:45.919Z,73.00
2022-08-02T22:02:17.974Z,73.30
2022-08-02T22:04:47.849Z,73.70
2022-08-02T22:07:24.004Z,73.70
2022-08-02T22:09:53.324Z,74.20
2022-08-02T22:12:25.891Z,74.40
2022-08-02T22:14:56.589Z,74.10
2022-08-02T22:17:50.598Z,74.20
2022-08-02T22:20:19.777Z,74.40
2022-08-02T22:22:50.415Z,74.80
2022-08-02T22:25:27.357Z,75.30
2022-08-02T22:28:36.561Z,75.30
2022-08-02T22:30:57.614Z,75.50
2022-08-02T22:34:00.896Z,75.00
2022-08-02T22:36:31.270Z,75.30
2022-08-02T22:39:01.007Z,75.20
2022-08-02T22:42:01.491Z,75.80
2022-08-02T22:47:14.504Z,75.20
2022-08-02T22:49:52.890Z,75.20
2022-08-02T22:52:23.013Z,75.40
2022-08-02T22:54:52.238Z,75.80
2022-08-02T22:57:30.777Z,75.40
2022-08-02T22:58:35.575Z,43.80
2022-08-02T22:58:58.174Z,49.70
2022-08-02T22:59:02.553Z,70.90
2022-08-02T22:59:06.148Z,62.00
2022-08-02T22:59:06.250Z,60.00
2022-08-02T22:59:09.786Z,75.20
2022-08-02T23:00:00.787Z,75.90
2022-08-02T23:02:29.996Z,76.80
2022-08-02T23:04:59.917Z,77.00
2022-08-02T23:07:28.322Z,76.90
2022-08-02T23:10:06.127Z,76.60
2022-08-02T23:12:34.695Z,76.20
2022-08-02T23:15:03.055Z,76.40
2022-08-02T23:17:49.107Z,76.50
2022-08-02T23:20:22.780Z,76.90
2022-08-02T23:22:51.068Z,77.40
2022-08-02T23:25:20.321Z,77.30
2022-08-02T23:27:51.141Z,78.20
2022-08-02T23:30:19.890Z,77.70
2022-08-02T23:32:48.216Z,77.90
2022-08-02T23:35:17.511Z,77.70
2022-08-02T23:38:00.326Z,77.20
2022-08-02T23:40:39.527Z,77.40
2022-08-02T23:43:13.338Z,77.40
2022-08-02T23:45:45.159Z,77.80
2022-08-02T23:48:13.494Z,78.30
2022-08-02T23:50:41.840Z,78.10
2022-08-02T23:53:11.435Z,77.90
2022-08-02T23:55:39.732Z,78.00
2022-08-02T23:58:08.015Z,78.00
